Time;durP1;ratioP1;P1;durP2;ratioP2;P2;SDS_P1;SDS_P2;PMS_P1;PMS_P2;Temp;Humidity;BMP_temperature;BMP_pressure;BME280_temperature;BME280_humidity;BME280_pressure;Samples;Min_cycle;Max_cycle;Signal;HPM_P1;HPM_P2
2024/02/07 00:02:01;;;;;;;18.85;3.60;;;;;;;;;;5107088;28;20027;-39
2024/02/07 00:04:28;;;;;;;20.67;4.30;;;;;;;;;;5114910;28;20107;-39
2024/02/07 00:06:55;;;;;;;20.00;4.30;;;;;;;;;;5115017;28;20036;-40
2024/02/07 00:09:23;;;;;;;17.05;3.90;;;;;;;;;;5099193;28;20720;-39
2024/02/07 00:11:50;;;;;;;15.18;4.25;;;;;;;;;;5103480;28;20110;-40
2024/02/07 00:14:18;;;;;;;25.27;4.93;;;;;;;;;;5096095;28;20501;-44
2024/02/07 00:16:45;;;;;;;23.55;4.50;;;;;;;;;;5103727;28;20507;-40
2024/02/07 00:19:11;;;;;;;12.73;4.03;;;;;;;;;;5098930;28;20059;-39
2024/02/07 00:21:39;;;;;;;18.95;4.43;;;;;;;;;;5107515;28;20028;-40
2024/02/07 00:24:06;;;;;;;16.83;4.88;;;;;;;;;;5105635;28;20108;-39
2024/02/07 00:26:38;;;;;;;15.27;5.32;;;;;;;;;;5114316;28;20023;-40
2024/02/07 00:29:05;;;;;;;20.95;5.72;;;;;;;;;;5100515;28;20094;-40
2024/02/07 00:31:32;;;;;;;11.65;5.57;;;;;;;;;;5112825;28;20042;-42
2024/02/07 00:33:59;;;;;;;10.82;4.80;;;;;;;;;;5114337;28;20028;-42
2024/02/07 00:36:26;;;;;;;16.55;4.28;;;;;;;;;;5100401;28;20038;-40
2024/02/07 00:38:53;;;;;;;12.60;3.50;;;;;;;;;;5114419;28;20035;-42
2024/02/07 00:41:21;;;;;;;19.52;3.70;;;;;;;;;;5111750;28;20032;-41
2024/02/07 00:43:48;;;;;;;13.57;3.53;;;;;;;;;;5112903;28;20028;-41
2024/02/07 00:46:15;;;;;;;11.90;3.30;;;;;;;;;;5113925;28;20093;-40
2024/02/07 00:48:42;;;;;;;9.18;3.25;;;;;;;;;;5114141;28;20545;-40
2024/02/07 00:51:09;;;;;;;12.52;3.40;;;;;;;;;;5113625;28;20096;-41
2024/02/07 00:53:37;;;;;;;9.40;3.33;;;;;;;;;;5107294;28;20032;-41
2024/02/07 00:56:04;;;;;;;8.80;3.05;;;;;;;;;;5107519;28;20020;-42
2024/02/07 00:58:31;;;;;;;13.77;3.50;;;;;;;;;;5104787;28;20441;-41
2024/02/07 01:00:58;;;;;;;14.07;3.10;;;;;;;;;;5104170;28;20108;-41
2024/02/07 01:03:25;;;;;;;6.90;2.80;;;;;;;;;;5113393;28;20032;-41
2024/02/07 01:05:52;;;;;;;12.20;3.25;;;;;;;;;;5113683;28;20501;-42
2024/02/07 01:08:19;;;;;;;13.95;3.13;;;;;;;;;;5113843;28;20485;-42
2024/02/07 01:10:47;;;;;;;11.77;2.65;;;;;;;;;;5113471;28;20394;-40
2024/02/07 01:13:14;;;;;;;8.63;2.92;;;;;;;;;;5101649;27;20176;-42
2024/02/07 01:15:41;;;;;;;6.50;3.00;;;;;;;;;;5099792;28;20059;-41
2024/02/07 01:18:08;;;;;;;11.98;3.30;;;;;;;;;;5104103;28;20039;-40
2024/02/07 01:20:35;;;;;;;10.75;3.58;;;;;;;;;;5100021;28;20393;-41
2024/02/07 01:23:03;;;;;;;8.38;3.45;;;;;;;;;;5106944;28;20038;-41
2024/02/07 01:25:31;;;;;;;12.65;3.47;;;;;;;;;;5102401;28;20024;-40
2024/02/07 01:27:58;;;;;;;8.82;3.72;;;;;;;;;;5101412;28;20478;-40
2024/02/07 01:30:25;;;;;;;9.07;3.47;;;;;;;;;;5102294;28;20032;-42
2024/02/07 01:32:52;;;;;;;12.20;3.08;;;;;;;;;;5094669;28;20118;-44
2024/02/07 01:35:19;;;;;;;7.63;3.10;;;;;;;;;;5099111;28;20046;-41
2024/02/07 01:37:46;;;;;;;8.90;3.15;;;;;;;;;;5112886;28;20100;-41
2024/02/07 01:40:13;;;;;;;9.60;2.88;;;;;;;;;;5110765;28;20046;-41
2024/02/07 01:42:40;;;;;;;7.57;3.10;;;;;;;;;;5098518;28;20758;-41
2024/02/07 01:45:33;;;;;;;6.25;2.90;;;;;;;;;;5102838;28;20477;-41
2024/02/07 01:48:01;;;;;;;7.18;2.85;;;;;;;;;;5087903;28;20036;-41
2024/02/07 01:50:28;;;;;;;6.22;2.90;;;;;;;;;;5092692;28;20032;-41
2024/02/07 01:52:56;;;;;;;5.70;2.60;;;;;;;;;;5093760;28;20425;-41
2024/02/07 01:55:25;;;;;;;8.65;3.00;;;;;;;;;;5103897;28;20482;-41
2024/02/07 01:57:53;;;;;;;8.65;2.70;;;;;;;;;;5093869;28;20101;-41
2024/02/07 02:00:21;;;;;;;11.82;3.47;;;;;;;;;;5098271;28;20039;-41
2024/02/07 02:02:49;;;;;;;9.50;3.28;;;;;;;;;;5098328;28;20089;-41
2024/02/07 02:05:16;;;;;;;16.23;3.55;;;;;;;;;;5112593;28;20431;-42
2024/02/07 02:07:42;;;;;;;12.63;3.53;;;;;;;;;;5105701;28;20406;-41
2024/02/07 02:10:10;;;;;;;12.55;3.53;;;;;;;;;;5103760;28;20035;-41
2024/02/07 02:12:38;;;;;;;9.88;2.70;;;;;;;;;;5106566;28;20039;-41
2024/02/07 02:15:06;;;;;;;9.15;3.17;;;;;;;;;;5102913;28;20043;-41
2024/02/07 02:17:33;;;;;;;7.93;2.80;;;;;;;;;;5109194;28;20428;-41
2024/02/07 02:20:00;;;;;;;6.63;2.88;;;;;;;;;;5108100;28;20369;-41
2024/02/07 02:22:34;;;;;;;8.10;3.00;;;;;;;;;;5091045;28;20058;-41
2024/02/07 02:25:22;;;;;;;6.82;2.95;;;;;;;;;;5112143;28;20023;-43
2024/02/07 02:27:53;;;;;;;6.75;2.88;;;;;;;;;;5097497;28;20110;-40
2024/02/07 02:30:31;;;;;;;5.35;2.58;;;;;;;;;;5103445;28;20034;-41
2024/02/07 02:32:59;;;;;;;6.45;2.60;;;;;;;;;;5102148;28;20031;-41
2024/02/07 02:35:27;;;;;;;6.45;2.55;;;;;;;;;;5099759;28;20043;-41
2024/02/07 02:37:54;;;;;;;4.03;2.60;;;;;;;;;;5110810;28;20032;-41
2024/02/07 02:40:22;;;;;;;7.18;2.63;;;;;;;;;;5090712;28;20084;-40
2024/02/07 02:42:49;;;;;;;7.03;2.50;;;;;;;;;;5094813;28;20466;-41
2024/02/07 02:45:16;;;;;;;8.27;2.90;;;;;;;;;;5101959;28;20059;-41
2024/02/07 02:47:43;;;;;;;23.27;4.00;;;;;;;;;;5106424;28;20035;-40
2024/02/07 02:50:10;;;;;;;13.07;3.40;;;;;;;;;;5098916;28;20043;-40
2024/02/07 02:52:38;;;;;;;14.75;3.63;;;;;;;;;;5104747;28;20478;-40
2024/02/07 02:55:07;;;;;;;32.70;4.07;;;;;;;;;;5111741;28;20043;-40
2024/02/07 02:57:35;;;;;;;29.80;4.53;;;;;;;;;;5097336;28;20027;-40
2024/02/07 03:00:06;;;;;;;18.00;3.92;;;;;;;;;;5102294;28;20097;-40
2024/02/07 03:02:38;;;;;;;11.93;3.45;;;;;;;;;;5106870;28;20702;-40
2024/02/07 03:05:13;;;;;;;8.73;3.30;;;;;;;;;;5098321;28;20047;-41
2024/02/07 03:08:05;;;;;;;13.05;3.17;;;;;;;;;;5098074;28;20473;-41
2024/02/07 03:10:35;;;;;;;7.95;3.10;;;;;;;;;;5103410;28;20493;-42
2024/02/07 03:13:02;;;;;;;7.65;2.80;;;;;;;;;;5079622;28;20027;-41
2024/02/07 03:15:30;;;;;;;7.53;3.00;;;;;;;;;;5111555;28;20052;-40
2024/02/07 03:17:57;;;;;;;9.63;3.33;;;;;;;;;;5111345;28;20024;-43
2024/02/07 03:20:24;;;;;;;5.55;3.30;;;;;;;;;;5092546;28;20031;-40
2024/02/07 03:22:54;;;;;;;8.60;2.83;;;;;;;;;;5110476;28;20024;-40
2024/02/07 03:25:21;;;;;;;7.50;2.95;;;;;;;;;;5102087;28;20052;-40
2024/02/07 03:27:51;;;;;;;7.75;3.00;;;;;;;;;;5109210;28;20028;-40
2024/02/07 03:30:23;;;;;;;6.05;2.80;;;;;;;;;;5105634;28;20028;-40
2024/02/07 03:32:56;;;;;;;8.00;3.13;;;;;;;;;;5102375;28;20025;-39
2024/02/07 03:35:22;;;;;;;;;;;;;;;;;;5094324;28;20032;-40
2024/02/07 03:37:49;;;;;;;9.20;3.17;;;;;;;;;;5092443;28;19915;-40
2024/02/07 03:40:16;;;;;;;9.77;3.22;;;;;;;;;;5074190;28;20507;-39
2024/02/07 03:42:44;;;;;;;7.97;3.40;;;;;;;;;;5102682;28;20532;-39
2024/02/07 03:45:16;;;;;;;8.25;3.00;;;;;;;;;;5109557;28;20023;-40
2024/02/07 03:47:47;;;;;;;8.02;3.00;;;;;;;;;;5111563;28;20035;-41
2024/02/07 03:50:17;;;;;;;6.35;3.17;;;;;;;;;;5110004;28;20484;-40
2024/02/07 03:52:48;;;;;;;6.40;2.83;;;;;;;;;;5110493;28;20035;-40
2024/02/07 03:55:15;;;;;;;8.77;3.13;;;;;;;;;;5111142;28;20252;-42
2024/02/07 03:57:45;;;;;;;6.32;3.10;;;;;;;;;;5097467;28;20401;-42
2024/02/07 04:00:15;;;;;;;6.72;3.38;;;;;;;;;;5098658;28;20054;-40
2024/02/07 04:02:47;;;;;;;8.77;3.25;;;;;;;;;;5099356;28;20032;-40
2024/02/07 04:05:14;;;;;;;9.77;3.17;;;;;;;;;;5081547;28;20588;-40
2024/02/07 04:07:41;;;;;;;8.75;2.90;;;;;;;;;;5105389;28;20035;-42
2024/02/07 04:10:11;;;;;;;7.88;3.35;;;;;;;;;;5097051;28;20057;-40
2024/02/07 05:15:58;;;;;;;7.30;2.13;;;;;;;;;;5113891;28;20130;-39
2024/02/07 05:18:25;;;;;;;8.13;2.60;;;;;;;;;;5113617;28;20028;-39
2024/02/07 05:20:52;;;;;;;11.82;3.63;;;;;;;;;;5113743;28;20126;-40
2024/02/07 05:23:21;;;;;;;10.85;3.40;;;;;;;;;;5113640;28;20024;-39
2024/02/07 05:25:49;;;;;;;11.35;2.97;;;;;;;;;;5113680;28;20077;-39
2024/02/07 05:28:16;;;;;;;8.23;2.60;;;;;;;;;;5113493;28;20016;-39
2024/02/07 05:30:43;;;;;;;6.20;2.33;;;;;;;;;;5113531;28;20094;-39
2024/02/07 05:33:10;;;;;;;4.43;1.70;;;;;;;;;;5113381;28;20040;-40
2024/02/07 05:35:37;;;;;;;4.55;1.50;;;;;;;;;;5095005;28;20397;-40
2024/02/07 05:38:04;;;;;;;2.72;1.20;;;;;;;;;;5095117;28;20019;-39
2024/02/07 05:40:31;;;;;;;2.75;1.25;;;;;;;;;;5113557;28;20036;-39
2024/02/07 05:43:00;;;;;;;6.20;1.13;;;;;;;;;;5113056;28;20027;-39
2024/02/07 05:45:27;;;;;;;4.25;1.52;;;;;;;;;;5113323;28;20032;-40
2024/02/07 05:47:54;;;;;;;3.38;1.20;;;;;;;;;;5113314;28;20036;-40
2024/02/07 05:50:22;;;;;;;6.63;1.70;;;;;;;;;;5113307;28;20023;-39
2024/02/07 05:52:49;;;;;;;5.70;1.80;;;;;;;;;;5112988;28;20039;-39
2024/02/07 05:55:16;;;;;;;5.78;1.70;;;;;;;;;;5112965;28;20036;-39
2024/02/07 05:57:43;;;;;;;5.45;1.58;;;;;;;;;;5113029;28;20549;-39
2024/02/07 06:00:10;;;;;;;5.97;1.50;;;;;;;;;;5113081;28;20055;-39
2024/02/07 06:02:38;;;;;;;5.68;1.60;;;;;;;;;;5111665;27;20033;-39
2024/02/07 06:05:05;;;;;;;4.25;1.60;;;;;;;;;;5112596;28;20164;-39
2024/02/07 06:07:33;;;;;;;5.03;1.67;;;;;;;;;;5099694;28;20036;-39
2024/02/07 06:10:00;;;;;;;4.05;1.30;;;;;;;;;;5092516;28;20443;-40
2024/02/07 06:12:28;;;;;;;4.47;1.35;;;;;;;;;;5092315;28;20107;-39
2024/02/07 06:14:56;;;;;;;4.95;1.60;;;;;;;;;;5107584;28;20043;-39
2024/02/07 06:17:23;;;;;;;5.57;1.40;;;;;;;;;;5112860;28;20100;-40
2024/02/07 06:19:50;;;;;;;5.05;1.48;;;;;;;;;;5112816;28;20030;-40
2024/02/07 06:22:17;;;;;;;4.45;1.50;;;;;;;;;;5112034;28;20038;-39
2024/02/07 06:24:44;;;;;;;4.72;1.70;;;;;;;;;;5110366;28;20023;-40
2024/02/07 06:27:12;;;;;;;4.78;1.42;;;;;;;;;;5092249;28;20031;-40
2024/02/07 06:29:39;;;;;;;3.80;1.63;;;;;;;;;;5092124;28;20035;-39
2024/02/07 06:32:06;;;;;;;6.80;1.58;;;;;;;;;;5106899;28;20031;-39
2024/02/07 06:34:34;;;;;;;3.67;1.48;;;;;;;;;;5111629;28;20055;-40
2024/02/07 06:37:02;;;;;;;3.25;1.40;;;;;;;;;;5112343;28;20036;-39
2024/02/07 06:39:30;;;;;;;4.25;1.63;;;;;;;;;;5112290;28;20096;-40
2024/02/07 06:41:57;;;;;;;2.55;1.40;;;;;;;;;;5112243;28;20382;-39
2024/02/07 06:44:24;;;;;;;6.50;1.58;;;;;;;;;;5112240;28;20488;-40
2024/02/07 06:46:50;;;;;;;2.70;1.40;;;;;;;;;;5112420;28;20485;-40
2024/02/07 06:49:17;;;;;;;2.97;1.50;;;;;;;;;;5112144;28;20802;-39
2024/02/07 06:51:44;;;;;;;3.13;1.40;;;;;;;;;;5112370;28;20039;-40
2024/02/07 06:54:12;;;;;;;2.95;1.10;;;;;;;;;;5112195;28;20076;-39
2024/02/07 06:56:39;;;;;;;4.15;1.02;;;;;;;;;;5112102;28;20035;-39
2024/02/07 06:59:11;;;;;;;2.92;1.20;;;;;;;;;;5112118;28;20035;-40
2024/02/07 07:01:39;;;;;;;3.55;1.08;;;;;;;;;;5112306;28;20039;-40
2024/02/07 07:04:06;;;;;;;3.13;1.20;;;;;;;;;;5111939;28;20039;-39
2024/02/07 07:06:33;;;;;;;1.65;0.90;;;;;;;;;;5112040;28;20068;-41
2024/02/07 07:09:00;;;;;;;3.30;1.33;;;;;;;;;;5112078;28;20028;-40
2024/02/07 07:11:27;;;;;;;2.33;1.00;;;;;;;;;;5112058;28;20032;-39
2024/02/07 07:13:56;;;;;;;3.70;1.20;;;;;;;;;;5111372;28;20055;-39
2024/02/07 07:16:23;;;;;;;2.05;1.00;;;;;;;;;;5112062;28;20385;-39
2024/02/07 07:18:52;;;;;;;4.20;1.17;;;;;;;;;;5112011;28;20114;-39
2024/02/07 07:21:20;;;;;;;2.78;1.02;;;;;;;;;;5111817;28;20482;-39
2024/02/07 07:23:47;;;;;;;2.67;1.10;;;;;;;;;;5111809;28;20081;-39
2024/02/07 07:26:14;;;;;;;2.58;1.30;;;;;;;;;;5111915;28;20106;-40
2024/02/07 07:28:41;;;;;;;1.90;0.90;;;;;;;;;;5111876;28;20102;-39
2024/02/07 07:31:08;;;;;;;4.28;1.25;;;;;;;;;;5111885;28;20461;-40
2024/02/07 07:33:35;;;;;;;2.97;1.25;;;;;;;;;;5111673;28;20028;-39
2024/02/07 07:36:02;;;;;;;3.05;1.20;;;;;;;;;;5111659;28;20044;-39
2024/02/07 07:38:29;;;;;;;2.40;1.08;;;;;;;;;;5111871;28;20119;-39
2024/02/07 07:40:56;;;;;;;2.25;1.33;;;;;;;;;;5111694;28;20051;-39
2024/02/07 07:43:23;;;;;;;1.83;0.70;;;;;;;;;;5111472;28;20400;-39
2024/02/07 07:45:50;;;;;;;2.53;1.13;;;;;;;;;;5111775;28;20443;-41
2024/02/07 07:48:18;;;;;;;1.65;0.90;;;;;;;;;;5115671;28;20579;-39
2024/02/07 07:50:44;;;;;;;3.15;1.42;;;;;;;;;;5115655;28;20034;-39
2024/02/07 07:53:11;;;;;;;4.32;1.08;;;;;;;;;;5115444;28;20023;-39
2024/02/07 07:55:38;;;;;;;1.98;1.02;;;;;;;;;;5115477;28;20055;-39
2024/02/07 07:58:05;;;;;;;3.40;1.10;;;;;;;;;;5115613;28;20035;-40
2024/02/07 08:00:34;;;;;;;2.05;0.90;;;;;;;;;;5115539;28;20081;-39
2024/02/07 08:03:01;;;;;;;1.63;0.85;;;;;;;;;;5115240;28;20096;-39
2024/02/07 08:05:29;;;;;;;3.78;0.90;;;;;;;;;;5115276;28;20484;-39
2024/02/07 08:07:56;;;;;;;2.95;1.30;;;;;;;;;;5115432;28;20068;-39
2024/02/07 08:10:23;;;;;;;3.20;1.20;;;;;;;;;;5115340;28;20561;-40
2024/02/07 08:12:50;;;;;;;2.63;1.02;;;;;;;;;;5115228;28;20076;-39
2024/02/07 08:15:17;;;;;;;3.08;1.23;;;;;;;;;;5115009;28;20106;-39
2024/02/07 08:17:44;;;;;;;3.60;1.10;;;;;;;;;;5115523;28;20393;-39
2024/02/07 08:20:11;;;;;;;3.35;1.05;;;;;;;;;;5115183;28;20023;-39
2024/02/07 08:22:38;;;;;;;1.88;0.88;;;;;;;;;;5115110;28;20035;-40
2024/02/07 08:25:06;;;;;;;2.78;1.00;;;;;;;;;;5114914;28;20046;-39
2024/02/07 08:27:32;;;;;;;2.83;0.85;;;;;;;;;;5115144;28;20452;-39
2024/02/07 08:29:59;;;;;;;1.55;0.77;;;;;;;;;;5114927;28;20020;-40
2024/02/07 08:32:26;;;;;;;1.52;0.90;;;;;;;;;;5114762;28;20367;-39
2024/02/07 08:34:53;;;;;;;1.10;0.65;;;;;;;;;;5114809;28;20044;-39
2024/02/07 08:37:24;;;;;;;1.98;0.80;;;;;;;;;;5114756;28;20015;-40
2024/02/07 08:39:51;;;;;;;1.95;0.80;;;;;;;;;;5114615;28;20040;-39
2024/02/07 08:42:17;;;;;;;1.77;0.68;;;;;;;;;;5114609;28;20020;-39
2024/02/07 08:44:44;;;;;;;1.15;0.52;;;;;;;;;;5114544;28;20027;-39
2024/02/07 08:47:11;;;;;;;2.55;0.82;;;;;;;;;;5114703;28;20493;-39
2024/02/07 08:49:40;;;;;;;2.45;0.60;;;;;;;;;;5096226;28;20023;-39
2024/02/07 08:52:07;;;;;;;1.30;0.70;;;;;;;;;;5114234;28;20759;-39
2024/02/07 08:54:34;;;;;;;2.95;0.90;;;;;;;;;;5114231;28;20042;-39
2024/02/07 08:57:01;;;;;;;1.70;0.75;;;;;;;;;;5114020;28;20023;-39
2024/02/07 08:59:29;;;;;;;1.88;0.85;;;;;;;;;;5114204;28;20023;-39
2024/02/07 09:01:56;;;;;;;2.70;0.80;;;;;;;;;;5114029;28;20039;-46
2024/02/07 09:04:22;;;;;;;2.30;0.73;;;;;;;;;;5114224;28;20036;-39
2024/02/07 09:06:49;;;;;;;2.03;0.85;;;;;;;;;;5114266;28;20031;-40
2024/02/07 09:09:16;;;;;;;1.35;0.63;;;;;;;;;;5113793;28;20030;-40
2024/02/07 09:11:43;;;;;;;1.83;0.70;;;;;;;;;;5113984;28;20039;-40
2024/02/07 09:14:11;;;;;;;3.00;0.63;;;;;;;;;;5113689;28;20043;-39
2024/02/07 09:16:38;;;;;;;2.08;0.60;;;;;;;;;;5114283;28;20422;-40
2024/02/07 09:19:05;;;;;;;2.50;0.70;;;;;;;;;;5113877;28;20032;-39
2024/02/07 09:21:32;;;;;;;2.17;0.70;;;;;;;;;;5113826;28;20020;-39
2024/02/07 09:23:59;;;;;;;1.80;0.95;;;;;;;;;;5113737;28;20024;-42
2024/02/07 09:26:32;;;;;;;2.65;0.95;;;;;;;;;;5113832;28;20020;-39
2024/02/07 09:28:59;;;;;;;3.53;0.80;;;;;;;;;;5113728;28;20508;-39
2024/02/07 09:31:26;;;;;;;2.13;0.98;;;;;;;;;;5113719;28;20027;-39
2024/02/07 09:33:53;;;;;;;2.67;0.88;;;;;;;;;;5113400;28;20031;-39
2024/02/07 09:36:20;;;;;;;3.25;0.95;;;;;;;;;;5113534;28;20032;-39
2024/02/07 09:38:47;;;;;;;2.85;1.08;;;;;;;;;;5113287;28;20039;-39
2024/02/07 09:41:15;;;;;;;1.75;0.80;;;;;;;;;;5113406;28;20573;-40
2024/02/07 09:43:42;;;;;;;1.98;0.90;;;;;;;;;;5113386;28;20023;-39
2024/02/07 09:46:11;;;;;;;3.75;1.10;;;;;;;;;;5113452;28;20028;-40
2024/02/07 09:48:39;;;;;;;1.77;0.80;;;;;;;;;;5113327;28;20034;-39
2024/02/07 09:51:08;;;;;;;2.50;0.90;;;;;;;;;;5113406;28;20032;-40
2024/02/07 09:53:36;;;;;;;4.28;0.90;;;;;;;;;;5112961;28;20031;-39
2024/02/07 09:56:03;;;;;;;3.42;0.90;;;;;;;;;;5113165;28;20792;-39
2024/02/07 09:58:31;;;;;;;3.40;0.80;;;;;;;;;;5094778;28;20066;-39
2024/02/07 10:00:57;;;;;;;2.92;0.90;;;;;;;;;;5113018;28;20032;-39
2024/02/07 10:03:25;;;;;;;2.17;1.00;;;;;;;;;;5112871;28;20073;-39
2024/02/07 10:05:54;;;;;;;3.08;1.00;;;;;;;;;;5112905;28;20032;-39
2024/02/07 10:08:21;;;;;;;2.25;0.95;;;;;;;;;;5112472;28;20069;-39
2024/02/07 10:10:48;;;;;;;2.38;1.00;;;;;;;;;;5112529;28;20034;-39
2024/02/07 10:13:15;;;;;;;3.00;1.00;;;;;;;;;;5112499;28;20031;-39
2024/02/07 10:15:43;;;;;;;2.85;0.80;;;;;;;;;;5112585;28;20040;-40
2024/02/07 10:18:11;;;;;;;1.48;0.80;;;;;;;;;;5112863;28;20558;-39
2024/02/07 10:20:38;;;;;;;1.95;1.00;;;;;;;;;;5123699;27;20432;-41
2024/02/07 10:23:11;;;;;;;2.60;1.05;;;;;;;;;;5133343;27;20039;-40
2024/02/07 10:25:38;;;;;;;3.15;0.98;;;;;;;;;;5133004;27;20032;-39
2024/02/07 10:28:05;;;;;;;4.13;1.05;;;;;;;;;;5133154;27;20397;-39
2024/02/07 10:30:32;;;;;;;2.75;0.98;;;;;;;;;;5133132;27;20042;-39
2024/02/07 10:32:59;;;;;;;3.47;0.93;;;;;;;;;;5132998;27;20038;-39
2024/02/07 10:35:26;;;;;;;3.00;1.00;;;;;;;;;;5132934;27;20031;-39
2024/02/07 10:37:55;;;;;;;3.85;1.05;;;;;;;;;;5127663;27;20024;-40
2024/02/07 10:40:22;;;;;;;2.35;0.88;;;;;;;;;;5112207;28;20039;-39
2024/02/07 10:42:55;;;;;;;2.35;0.90;;;;;;;;;;5112312;28;20027;-40
2024/02/07 10:45:22;;;;;;;3.50;0.98;;;;;;;;;;5112374;28;20042;-39
2024/02/07 10:47:52;;;;;;;2.33;0.80;;;;;;;;;;5112106;28;20031;-39
2024/02/07 10:50:23;;;;;;;3.97;0.68;;;;;;;;;;5093488;28;20027;-39
2024/02/07 10:52:50;;;;;;;3.83;0.80;;;;;;;;;;5091752;28;20120;-39
2024/02/07 10:55:21;;;;;;;2.58;1.17;;;;;;;;;;5091873;28;20071;-39
2024/02/07 10:57:55;;;;;;;2.77;1.10;;;;;;;;;;5091747;28;20165;-39
2024/02/07 11:00:22;;;;;;;2.05;0.70;;;;;;;;;;5091669;28;20443;-39
2024/02/07 11:02:50;;;;;;;2.33;1.10;;;;;;;;;;5091524;28;20385;-39
2024/02/07 11:05:18;;;;;;;1.73;0.98;;;;;;;;;;5091549;28;20036;-39
2024/02/07 11:07:46;;;;;;;4.18;1.02;;;;;;;;;;5106068;28;20043;-39
2024/02/07 11:10:13;;;;;;;4.55;0.88;;;;;;;;;;5112031;28;20118;-39
2024/02/07 11:12:41;;;;;;;4.78;0.95;;;;;;;;;;5111811;28;20052;-40
2024/02/07 11:15:09;;;;;;;2.53;1.00;;;;;;;;;;5094511;28;20135;-39
2024/02/07 11:17:36;;;;;;;2.90;0.90;;;;;;;;;;5091449;28;20078;-40
2024/02/07 11:20:03;;;;;;;3.38;1.05;;;;;;;;;;5092089;28;20052;-39
2024/02/07 11:22:33;;;;;;;5.03;1.02;;;;;;;;;;5095732;28;20039;-39
2024/02/07 11:25:00;;;;;;;4.88;1.10;;;;;;;;;;5095781;28;20081;-39
2024/02/07 11:27:27;;;;;;;2.50;0.80;;;;;;;;;;5095550;28;20020;-39
2024/02/07 11:29:54;;;;;;;4.78;1.10;;;;;;;;;;5105429;28;20481;-39
2024/02/07 11:32:21;;;;;;;1.92;0.90;;;;;;;;;;5115966;28;20445;-39
2024/02/07 11:34:55;;;;;;;4.55;1.15;;;;;;;;;;5115813;28;20040;-39
2024/02/07 11:37:22;;;;;;;1.98;0.80;;;;;;;;;;5115969;28;20024;-39
2024/02/07 11:39:50;;;;;;;5.60;1.00;;;;;;;;;;5115818;28;20032;-39
2024/02/07 11:42:20;;;;;;;3.15;0.98;;;;;;;;;;5115798;28;20057;-39
2024/02/07 11:44:55;;;;;;;2.58;0.90;;;;;;;;;;5115792;28;20020;-39
2024/02/07 11:47:26;;;;;;;2.25;1.10;;;;;;;;;;5115635;28;20028;-40
2024/02/07 11:49:56;;;;;;;3.78;1.02;;;;;;;;;;5115669;28;20023;-39
2024/02/07 11:52:41;;;;;;;1.95;0.80;;;;;;;;;;5115484;28;20063;-39
2024/02/07 11:55:14;;;;;;;3.05;1.20;;;;;;;;;;5115556;28;20027;-39
2024/02/07 11:57:42;;;;;;;2.63;0.90;;;;;;;;;;5115575;28;20062;-39
2024/02/07 12:00:13;;;;;;;3.58;1.20;;;;;;;;;;5115371;28;20019;-41
2024/02/07 12:02:46;;;;;;;3.30;1.25;;;;;;;;;;5115367;28;20027;-39
2024/02/07 12:05:17;;;;;;;4.85;1.02;;;;;;;;;;5115467;28;20106;-39
2024/02/07 12:07:44;;;;;;;2.13;0.90;;;;;;;;;;5115337;28;20076;-40
2024/02/07 12:10:11;;;;;;;3.30;1.10;;;;;;;;;;5115310;28;20027;-39
2024/02/07 12:12:38;;;;;;;3.03;1.20;;;;;;;;;;5114992;28;20032;-39
2024/02/07 12:15:06;;;;;;;5.18;1.00;;;;;;;;;;5114948;28;20123;-40
2024/02/07 12:17:36;;;;;;;5.72;1.33;;;;;;;;;;5115171;28;20039;-39
2024/02/07 12:20:04;;;;;;;6.15;1.00;;;;;;;;;;5115091;28;20481;-39
2024/02/07 12:22:31;;;;;;;4.07;1.30;;;;;;;;;;5114878;28;20102;-39
2024/02/07 12:25:00;;;;;;;5.75;1.35;;;;;;;;;;5114825;28;20066;-39
2024/02/07 12:27:27;;;;;;;5.35;1.30;;;;;;;;;;5114809;28;20389;-39
2024/02/07 12:29:55;;;;;;;3.30;1.27;;;;;;;;;;5114882;28;20031;-40
2024/02/07 12:32:23;;;;;;;2.58;1.00;;;;;;;;;;5114065;28;20153;-39
2024/02/07 12:34:51;;;;;;;5.47;1.30;;;;;;;;;;5114551;28;20088;-39
2024/02/07 12:37:21;;;;;;;6.88;1.20;;;;;;;;;;5114554;28;20035;-39
2024/02/07 12:39:49;;;;;;;8.55;1.15;;;;;;;;;;5114587;28;20035;-39
2024/02/07 12:42:20;;;;;;;2.97;1.17;;;;;;;;;;5114569;28;20067;-39
2024/02/07 12:44:50;;;;;;;4.07;1.13;;;;;;;;;;5114601;28;20027;-39
2024/02/07 12:47:21;;;;;;;5.20;1.30;;;;;;;;;;5114469;28;20172;-39
2024/02/07 12:49:51;;;;;;;3.38;1.40;;;;;;;;;;5114397;28;20133;-39
2024/02/07 12:52:19;;;;;;;3.42;1.10;;;;;;;;;;5114300;28;20055;-39
2024/02/07 12:54:49;;;;;;;7.93;1.30;;;;;;;;;;5124576;27;20100;-39
2024/02/07 12:57:22;;;;;;;3.25;1.08;;;;;;;;;;5116624;27;20126;-39
2024/02/07 12:59:50;;;;;;;7.10;1.77;;;;;;;;;;5130286;27;20023;-39
2024/02/07 13:02:17;;;;;;;12.77;1.63;;;;;;;;;;5120534;27;20050;-40
2024/02/07 13:04:45;;;;;;;7.55;1.50;;;;;;;;;;5107687;28;20122;-40
2024/02/07 13:07:12;;;;;;;11.73;1.40;;;;;;;;;;5114052;28;20035;-39
2024/02/07 13:09:39;;;;;;;9.20;1.45;;;;;;;;;;5113490;28;20489;-40
2024/02/07 13:12:07;;;;;;;9.60;1.65;;;;;;;;;;5113927;28;20068;-39
2024/02/07 13:14:34;;;;;;;8.18;1.60;;;;;;;;;;5103857;28;20056;-39
2024/02/07 13:17:00;;;;;;;6.07;1.33;;;;;;;;;;5094062;28;20024;-40
2024/02/07 13:19:28;;;;;;;4.88;1.38;;;;;;;;;;5094142;28;20035;-39
2024/02/07 13:21:54;;;;;;;9.77;1.55;;;;;;;;;;5093731;28;20069;-39
2024/02/07 13:24:22;;;;;;;5.95;1.30;;;;;;;;;;5106487;28;20032;-41
2024/02/07 13:26:53;;;;;;;5.63;1.70;;;;;;;;;;5093421;28;20505;-39
2024/02/07 13:29:20;;;;;;;8.82;1.92;;;;;;;;;;5105583;28;20027;-39
2024/02/07 13:31:47;;;;;;;11.27;2.08;;;;;;;;;;5107205;28;20027;-39
2024/02/07 13:34:15;;;;;;;8.18;2.00;;;;;;;;;;5098045;28;20034;-39
2024/02/07 13:36:42;;;;;;;11.50;2.60;;;;;;;;;;5097984;28;20040;-40
2024/02/07 13:39:09;;;;;;;9.95;2.50;;;;;;;;;;5094621;28;20107;-40
2024/02/07 13:41:36;;;;;;;20.15;3.45;;;;;;;;;;5106160;28;20035;-40
2024/02/07 13:44:03;;;;;;;12.70;2.67;;;;;;;;;;5112093;28;20101;-40
2024/02/07 13:46:30;;;;;;;12.85;3.17;;;;;;;;;;5110593;28;20067;-39
2024/02/07 13:48:59;;;;;;;16.35;2.90;;;;;;;;;;5111633;28;20036;-39
2024/02/07 13:51:26;;;;;;;18.63;3.67;;;;;;;;;;5112030;28;20036;-40
2024/02/07 13:53:53;;;;;;;17.85;3.20;;;;;;;;;;5105507;28;20028;-39
2024/02/07 13:56:21;;;;;;;14.93;3.30;;;;;;;;;;5113490;28;20387;-39
2024/02/07 13:58:48;;;;;;;25.05;3.58;;;;;;;;;;5113156;28;20027;-39
2024/02/07 14:01:15;;;;;;;12.18;2.85;;;;;;;;;;5113462;28;20058;-39
2024/02/07 14:03:42;;;;;;;26.90;3.90;;;;;;;;;;5107342;28;20429;-40
2024/02/07 14:06:08;;;;;;;29.52;4.75;;;;;;;;;;5105973;28;20084;-40
2024/02/07 14:08:35;;;;;;;31.15;4.85;;;;;;;;;;5113389;28;20028;-39
2024/02/07 14:11:03;;;;;;;28.83;4.53;;;;;;;;;;5113267;28;20381;-39
2024/02/07 14:13:29;;;;;;;30.00;4.20;;;;;;;;;;5094931;28;20035;-39
2024/02/07 14:15:56;;;;;;;19.52;3.75;;;;;;;;;;5112817;28;20036;-39
2024/02/07 14:18:23;;;;;;;37.75;4.47;;;;;;;;;;5113096;28;20031;-39
2024/02/07 14:20:50;;;;;;;28.27;4.40;;;;;;;;;;5113040;28;20072;-39
2024/02/07 14:23:17;;;;;;;26.58;4.32;;;;;;;;;;5112849;28;20516;-39
2024/02/07 14:25:44;;;;;;;28.40;4.28;;;;;;;;;;5109227;28;20385;-38
2024/02/07 14:28:12;;;;;;;25.83;4.63;;;;;;;;;;5098375;28;20161;-38
2024/02/07 14:30:39;;;;;;;32.30;4.90;;;;;;;;;;5105210;28;20039;-39
2024/02/07 14:33:07;;;;;;;74.07;13.18;;;;;;;;;;5108793;28;20396;-39
2024/02/07 14:35:34;;;;;;;72.60;13.07;;;;;;;;;;5105281;28;20176;-39
2024/02/07 14:38:01;;;;;;;55.75;10.93;;;;;;;;;;5101587;28;20040;-39
2024/02/07 14:40:28;;;;;;;57.33;10.60;;;;;;;;;;5086613;27;20488;-39
2024/02/07 14:42:56;;;;;;;43.78;10.30;;;;;;;;;;5108787;28;20016;-39
2024/02/07 14:45:23;;;;;;;58.47;10.88;;;;;;;;;;5105400;28;20106;-39
2024/02/07 14:47:50;;;;;;;51.17;11.35;;;;;;;;;;5097274;28;20173;-39
2024/02/07 14:50:17;;;;;;;58.10;10.75;;;;;;;;;;5109407;28;20382;-39
2024/02/07 14:52:44;;;;;;;68.47;11.55;;;;;;;;;;5112314;28;20503;-39
2024/02/07 14:55:12;;;;;;;60.55;11.98;;;;;;;;;;5110834;28;20118;-39
2024/02/07 14:57:39;;;;;;;53.60;11.20;;;;;;;;;;5111890;28;20036;-39
2024/02/07 15:00:06;;;;;;;55.45;11.63;;;;;;;;;;5110415;28;20393;-39
2024/02/07 15:02:33;;;;;;;50.80;10.63;;;;;;;;;;5111378;28;20059;-39
2024/02/07 15:05:00;;;;;;;48.70;11.63;;;;;;;;;;5103475;28;20031;-38
2024/02/07 15:07:27;;;;;;;49.00;10.77;;;;;;;;;;5102621;28;20068;-38
2024/02/07 15:09:54;;;;;;;44.00;10.82;;;;;;;;;;5111997;28;20477;-38
2024/02/07 15:12:22;;;;;;;50.05;11.20;;;;;;;;;;5111446;28;20097;-38
2024/02/07 15:14:49;;;;;;;38.38;9.77;;;;;;;;;;5111495;28;20059;-38
2024/02/07 15:17:19;;;;;;;52.08;11.18;;;;;;;;;;5111147;28;20047;-38
2024/02/07 15:19:46;;;;;;;62.25;12.75;;;;;;;;;;5108519;28;20031;-38
2024/02/07 15:22:13;;;;;;;55.00;11.77;;;;;;;;;;5111122;28;20039;-38
2024/02/07 15:24:40;;;;;;;45.75;10.75;;;;;;;;;;5111752;28;20034;-38
2024/02/07 15:27:06;;;;;;;51.83;9.93;;;;;;;;;;5111189;28;20032;-38
2024/02/07 15:29:34;;;;;;;39.47;8.43;;;;;;;;;;5111447;28;20031;-38
2024/02/07 15:32:01;;;;;;;34.10;8.45;;;;;;;;;;5093276;28;20397;-38
2024/02/07 15:34:27;;;;;;;39.63;9.13;;;;;;;;;;5111323;28;20028;-38
2024/02/07 15:36:54;;;;;;;44.90;9.55;;;;;;;;;;5111191;28;20092;-38
2024/02/07 15:39:21;;;;;;;39.97;9.10;;;;;;;;;;5099924;28;20054;-38
2024/02/07 15:41:48;;;;;;;55.15;10.70;;;;;;;;;;5102469;28;20024;-38
2024/02/07 15:44:15;;;;;;;48.15;10.20;;;;;;;;;;5111450;28;20024;-40
2024/02/07 15:46:42;;;;;;;51.25;9.80;;;;;;;;;;5100126;28;20055;-40